Aviation Digital Data Service (ADDS)

Output produced by METARs form (0444 UTC 18 October 2018)
found at http://aviationweather.gov/metar/data/
 
METAR text: KFFZ 180354Z AUTO 05008KT 10SM CLR 20/04 A3006 RMK AO2 SLP161 T02000039
Conditions at: KFFZ (MESA/FALCON FLD , AZ, US) observed 0354 UTC 18 October 2018
Temperature: 20.0°C (68°F)
Dewpoint: 3.9°C (39°F) [RH = 35%]
Pressure (altimeter): 30.06 inches Hg (1018.0 mb)
[Sea-level pressure: 1016.1 mb]
Winds: from the NE (50 degrees) at 9 MPH (8 knots; 4.1 m/s)
Visibility: 10 or more miles (16+ km)
Ceiling: at least 12,000 feet AGL
Clouds: sky clear below 12,000 feet AGL
Weather: automated observation with no human augmentation;
there may or may not be significant weather present at this time

METAR text: KIWA 180347Z 07007KT 20SM FEW100 19/05 A3007
Conditions at: KIWA (CHANDLER/MESA , AZ, US) observed 0347 UTC 18 October 2018
Temperature: 19.0°C (66°F)
Dewpoint: 5.0°C (41°F) [RH = 40%]
Pressure (altimeter): 30.07 inches Hg (1018.4 mb)
Winds: from the ENE (70 degrees) at 8 MPH (7 knots; 3.6 m/s)
Visibility: 20 miles (32 km)
Ceiling: at least 12,000 feet AGL
Clouds: few clouds at 10000 feet AGL
Weather: no significant weather observed at this time

Forecast for: KIWA (CHANDLER/MESA , AZ, US)
Text: KIWA 172320Z 1800/1824 07010KT P6SM FEW100
Forecast period: 0000 to 0800 UTC 18 October 2018
Forecast type: FROM: standard forecast or significant change
Winds: from the ENE (70 degrees) at 12 MPH (10 knots; 5.1 m/s)
Visibility: 6 or more miles 10+ km)
Ceiling: at least 12,000 feet AGL
Clouds: few clouds at 10000 feet AGL
Weather: no significant weather forecast for this period
Text: FM180800 07005KT P6SM SKC WS020/10025KT
Forecast period: 0800 to 1500 UTC 18 October 2018
Forecast type: FROM: standard forecast or significant change
Winds: from the ENE (70 degrees) at 6 MPH (5 knots; 2.6 m/s)
Visibility: 6 or more miles 10+ km)
Clouds: clear skies
Wind Shear: at 2000 feet ( 610 m) AGL, from the E (100 degrees) at 29 MPH (25 knots; 13.0 m/s)
Weather: no significant weather forecast for this period
Text: FM181500 08009KT P6SM SKC
Forecast period: 1500 to 2300 UTC 18 October 2018
Forecast type: FROM: standard forecast or significant change
Winds: from the E (80 degrees) at 10 MPH (9 knots; 4.6 m/s)
Visibility: 6 or more miles 10+ km)
Clouds: clear skies
Weather: no significant weather forecast for this period
Text: FM182300 33004KT P6SM FEW070 AMD LTD TO CLD VIS AND WIND 1803/1813
Forecast period: 2300 UTC 18 October 2018 to 0000 UTC 19 October 2018
Forecast type: FROM: standard forecast or significant change
Winds: from the NNW (330 degrees) at 5 MPH (4 knots; 2.1 m/s)
Visibility: 6 or more miles 10+ km)
Ceiling: at least 12,000 feet AGL
Clouds: few clouds at 7000 feet AGL
Weather: no significant weather forecast for this period